KGYY

Gary / Chicago International Airport

Gary, Indiana, USA
METAR KGYY 161445Z 28012G23KT 10SM OVC021 04/00 A2991
Observed Flight Rules
Nov-16 @ 14:45 UTC (an hour ago) Marginal Visual Flight Rules
Wind Visibility Clouds
280° at 12 knots
 Gusting to 23 knots
10 miles
  • Overcast at 2,100' AGL
Temperatures Readings
Current 4°C / 39°F
Dewpoint 0°C / 32°F
Humidity 75%
Altimeter 29.91" Hg
Pressure 1013 hPa
Elevation 180
METAR KGYY 161445Z 28012G23KT 10SM OVC021 04/00 A2991
Observed Flight Rules
Nov-16 @ 14:45 UTC
(an hour ago)
MVFR
Wind Visibility
280° at 12 knots
 Gusting to 23 knots
10 miles
Clouds
  • Overcast at 2,100' AGL
Temperature Dewpoint
4°C / 39°F 0°C / 32°F
Humidity Altimeter Pressure
75% 29.91" Hg 1013 hPa